sensor_id;sensor_type;location;lat;lon;timestamp;temperature;humidity
38860;DHT22;24609;48.316;16.174;2023-05-10T00:01:05;11.70;99.90
38860;DHT22;24609;48.316;16.174;2023-05-10T00:03:31;11.70;99.90
38860;DHT22;24609;48.316;16.174;2023-05-10T00:05:56;11.70;99.90
38860;DHT22;24609;48.316;16.174;2023-05-10T00:08:22;11.70;99.90
38860;DHT22;24609;48.316;16.174;2023-05-10T00:10:48;11.70;99.90
38860;DHT22;24609;48.316;16.174;2023-05-10T00:13:14;11.80;99.90
38860;DHT22;24609;48.316;16.174;2023-05-10T00:15:40;11.70;99.90
38860;DHT22;24609;48.316;16.174;2023-05-10T00:18:06;11.60;99.90
38860;DHT22;24609;48.316;16.174;2023-05-10T00:20:31;11.60;99.90
38860;DHT22;24609;48.316;16.174;2023-05-10T00:22:57;11.60;99.90
38860;DHT22;24609;48.316;16.174;2023-05-10T00:25:22;11.50;99.90
38860;DHT22;24609;48.316;16.174;2023-05-10T00:27:48;11.50;99.90
38860;DHT22;24609;48.316;16.174;2023-05-10T00:30:16;11.30;99.90
38860;DHT22;24609;48.316;16.174;2023-05-10T00:32:41;11.40;99.90
38860;DHT22;24609;48.316;16.174;2023-05-10T00:35:08;11.60;99.90
38860;DHT22;24609;48.316;16.174;2023-05-10T00:37:34;11.60;99.90
38860;DHT22;24609;48.316;16.174;2023-05-10T00:40:00;11.50;99.90
38860;DHT22;24609;48.316;16.174;2023-05-10T00:42:26;11.50;99.90
38860;DHT22;24609;48.316;16.174;2023-05-10T00:44:52;11.50;99.90
38860;DHT22;24609;48.316;16.174;2023-05-10T00:47:18;11.40;99.90
38860;DHT22;24609;48.316;16.174;2023-05-10T00:49:44;11.40;99.90
38860;DHT22;24609;48.316;16.174;2023-05-10T00:52:10;11.40;99.90
38860;DHT22;24609;48.316;16.174;2023-05-10T00:54:36;11.40;99.90
38860;DHT22;24609;48.316;16.174;2023-05-10T00:57:02;11.30;99.90
38860;DHT22;24609;48.316;16.174;2023-05-10T00:59:28;11.30;99.90
38860;DHT22;24609;48.316;16.174;2023-05-10T01:01:54;11.30;99.90
38860;DHT22;24609;48.316;16.174;2023-05-10T01:04:20;11.20;99.90
38860;DHT22;24609;48.316;16.174;2023-05-10T01:06:51;11.20;99.90
38860;DHT22;24609;48.316;16.174;2023-05-10T01:09:18;11.30;99.90
38860;DHT22;24609;48.316;16.174;2023-05-10T01:11:44;11.20;99.90
38860;DHT22;24609;48.316;16.174;2023-05-10T01:14:11;11.20;99.90
38860;DHT22;24609;48.316;16.174;2023-05-10T01:16:39;11.40;99.90
38860;DHT22;24609;48.316;16.174;2023-05-10T01:19:26;11.40;99.90
38860;DHT22;24609;48.316;16.174;2023-05-10T01:27:41;11.20;99.90
38860;DHT22;24609;48.316;16.174;2023-05-10T01:33:39;11.20;99.90
38860;DHT22;24609;48.316;16.174;2023-05-10T01:36:48;11.20;99.90
38860;DHT22;24609;48.316;16.174;2023-05-10T01:39:20;11.20;99.90
38860;DHT22;24609;48.316;16.174;2023-05-10T01:42:03;11.10;99.90
38860;DHT22;24609;48.316;16.174;2023-05-10T01:47:37;11.10;99.90
38860;DHT22;24609;48.316;16.174;2023-05-10T01:50:08;11.00;99.90
38860;DHT22;24609;48.316;16.174;2023-05-10T01:52:41;11.00;99.90
38860;DHT22;24609;48.316;16.174;2023-05-10T01:55:13;11.00;99.90
38860;DHT22;24609;48.316;16.174;2023-05-10T01:57:40;10.90;99.90
38860;DHT22;24609;48.316;16.174;2023-05-10T02:00:09;11.00;99.90
38860;DHT22;24609;48.316;16.174;2023-05-10T02:02:40;11.00;99.90
38860;DHT22;24609;48.316;16.174;2023-05-10T02:05:08;11.00;99.90
38860;DHT22;24609;48.316;16.174;2023-05-10T02:07:36;11.10;99.90
38860;DHT22;24609;48.316;16.174;2023-05-10T02:10:06;11.20;99.90
38860;DHT22;24609;48.316;16.174;2023-05-10T02:12:37;11.10;99.90
38860;DHT22;24609;48.316;16.174;2023-05-10T02:15:06;11.00;99.90
38860;DHT22;24609;48.316;16.174;2023-05-10T02:17:32;11.00;99.90
38860;DHT22;24609;48.316;16.174;2023-05-10T02:20:01;11.20;99.90
38860;DHT22;24609;48.316;16.174;2023-05-10T02:22:28;11.10;99.90
38860;DHT22;24609;48.316;16.174;2023-05-10T02:24:55;11.10;99.90
38860;DHT22;24609;48.316;16.174;2023-05-10T02:27:24;10.90;99.90
38860;DHT22;24609;48.316;16.174;2023-05-10T02:29:51;10.90;99.90
38860;DHT22;24609;48.316;16.174;2023-05-10T02:32:19;11.00;99.90
38860;DHT22;24609;48.316;16.174;2023-05-10T02:34:45;11.00;99.90
38860;DHT22;24609;48.316;16.174;2023-05-10T02:37:15;10.90;99.90
38860;DHT22;24609;48.316;16.174;2023-05-10T02:39:41;11.00;99.90
38860;DHT22;24609;48.316;16.174;2023-05-10T02:42:18;11.00;99.90
38860;DHT22;24609;48.316;16.174;2023-05-10T02:44:48;10.90;99.90
38860;DHT22;24609;48.316;16.174;2023-05-10T02:47:14;10.80;99.90
38860;DHT22;24609;48.316;16.174;2023-05-10T02:49:39;10.80;99.90
38860;DHT22;24609;48.316;16.174;2023-05-10T02:52:06;10.70;99.90
38860;DHT22;24609;48.316;16.174;2023-05-10T02:54:41;10.60;99.90
38860;DHT22;24609;48.316;16.174;2023-05-10T02:57:11;10.60;99.90
38860;DHT22;24609;48.316;16.174;2023-05-10T02:59:40;10.70;99.90
38860;DHT22;24609;48.316;16.174;2023-05-10T03:02:08;10.70;99.90
38860;DHT22;24609;48.316;16.174;2023-05-10T03:04:34;10.80;99.90
38860;DHT22;24609;48.316;16.174;2023-05-10T03:07:00;10.70;99.90
38860;DHT22;24609;48.316;16.174;2023-05-10T03:09:26;10.70;99.90
38860;DHT22;24609;48.316;16.174;2023-05-10T03:12:03;10.80;99.90
38860;DHT22;24609;48.316;16.174;2023-05-10T03:17:25;10.60;99.90
38860;DHT22;24609;48.316;16.174;2023-05-10T03:20:01;10.60;99.90
38860;DHT22;24609;48.316;16.174;2023-05-10T03:22:36;10.60;99.90
38860;DHT22;24609;48.316;16.174;2023-05-10T03:25:06;10.60;99.90
38860;DHT22;24609;48.316;16.174;2023-05-10T03:27:32;10.60;99.90
38860;DHT22;24609;48.316;16.174;2023-05-10T03:29:59;10.60;99.90
38860;DHT22;24609;48.316;16.174;2023-05-10T03:32:29;10.60;99.90
38860;DHT22;24609;48.316;16.174;2023-05-10T03:34:55;10.60;99.90
38860;DHT22;24609;48.316;16.174;2023-05-10T03:37:21;10.70;99.90
38860;DHT22;24609;48.316;16.174;2023-05-10T03:39:47;10.70;99.90
38860;DHT22;24609;48.316;16.174;2023-05-10T03:42:12;10.60;99.90
38860;DHT22;24609;48.316;16.174;2023-05-10T03:44:41;10.60;99.90
38860;DHT22;24609;48.316;16.174;2023-05-10T03:47:07;10.50;99.90
38860;DHT22;24609;48.316;16.174;2023-05-10T03:49:32;10.60;99.90
38860;DHT22;24609;48.316;16.174;2023-05-10T03:51:58;10.60;99.90
38860;DHT22;24609;48.316;16.174;2023-05-10T03:54:24;10.60;99.90
38860;DHT22;24609;48.316;16.174;2023-05-10T03:56:49;10.60;99.90
38860;DHT22;24609;48.316;16.174;2023-05-10T03:59:15;10.60;99.90
38860;DHT22;24609;48.316;16.174;2023-05-10T04:01:40;10.70;99.90
38860;DHT22;24609;48.316;16.174;2023-05-10T04:04:06;10.70;99.90
38860;DHT22;24609;48.316;16.174;2023-05-10T04:06:32;10.70;99.90
38860;DHT22;24609;48.316;16.174;2023-05-10T04:08:58;10.60;99.90
38860;DHT22;24609;48.316;16.174;2023-05-10T04:11:25;10.70;99.90
38860;DHT22;24609;48.316;16.174;2023-05-10T04:13:51;10.80;99.90
38860;DHT22;24609;48.316;16.174;2023-05-10T04:16:17;10.90;99.90
38860;DHT22;24609;48.316;16.174;2023-05-10T04:18:43;11.00;99.90
38860;DHT22;24609;48.316;16.174;2023-05-10T04:21:12;11.00;99.90
38860;DHT22;24609;48.316;16.174;2023-05-10T04:23:38;11.10;99.90
38860;DHT22;24609;48.316;16.174;2023-05-10T04:26:04;11.20;99.90
38860;DHT22;24609;48.316;16.174;2023-05-10T04:28:30;11.30;99.90
38860;DHT22;24609;48.316;16.174;2023-05-10T04:31:06;11.30;99.90
38860;DHT22;24609;48.316;16.174;2023-05-10T04:33:33;11.60;99.90
38860;DHT22;24609;48.316;16.174;2023-05-10T04:35:59;11.70;99.90
38860;DHT22;24609;48.316;16.174;2023-05-10T04:38:25;11.70;99.90
38860;DHT22;24609;48.316;16.174;2023-05-10T04:40:51;11.80;99.90
38860;DHT22;24609;48.316;16.174;2023-05-10T04:43:17;11.80;99.90
38860;DHT22;24609;48.316;16.174;2023-05-10T04:45:42;11.80;99.90
38860;DHT22;24609;48.316;16.174;2023-05-10T04:48:08;11.80;99.90
38860;DHT22;24609;48.316;16.174;2023-05-10T04:50:34;12.00;99.90
38860;DHT22;24609;48.316;16.174;2023-05-10T04:52:59;12.20;99.90
38860;DHT22;24609;48.316;16.174;2023-05-10T04:55:25;12.10;99.90
38860;DHT22;24609;48.316;16.174;2023-05-10T04:57:52;12.30;99.90
38860;DHT22;24609;48.316;16.174;2023-05-10T05:00:18;12.30;99.90
38860;DHT22;24609;48.316;16.174;2023-05-10T05:02:44;12.50;99.90
38860;DHT22;24609;48.316;16.174;2023-05-10T05:05:13;12.60;99.90
38860;DHT22;24609;48.316;16.174;2023-05-10T05:07:39;12.60;99.90
38860;DHT22;24609;48.316;16.174;2023-05-10T05:10:08;12.60;99.90
38860;DHT22;24609;48.316;16.174;2023-05-10T05:12:34;12.60;99.90
38860;DHT22;24609;48.316;16.174;2023-05-10T05:15:01;12.60;99.90
38860;DHT22;24609;48.316;16.174;2023-05-10T05:17:26;12.60;99.90
38860;DHT22;24609;48.316;16.174;2023-05-10T05:19:52;12.70;99.90
38860;DHT22;24609;48.316;16.174;2023-05-10T05:22:18;12.70;99.90
38860;DHT22;24609;48.316;16.174;2023-05-10T05:24:45;12.80;99.90
38860;DHT22;24609;48.316;16.174;2023-05-10T05:27:11;13.00;99.90
38860;DHT22;24609;48.316;16.174;2023-05-10T05:29:36;13.10;99.90
38860;DHT22;24609;48.316;16.174;2023-05-10T05:32:02;13.10;99.90
38860;DHT22;24609;48.316;16.174;2023-05-10T05:34:28;13.10;99.90
38860;DHT22;24609;48.316;16.174;2023-05-10T05:36:54;13.20;99.90
38860;DHT22;24609;48.316;16.174;2023-05-10T05:39:20;13.20;99.90
38860;DHT22;24609;48.316;16.174;2023-05-10T05:41:45;13.30;99.90
38860;DHT22;24609;48.316;16.174;2023-05-10T05:44:11;13.50;99.90
38860;DHT22;24609;48.316;16.174;2023-05-10T05:46:37;13.50;99.90
38860;DHT22;24609;48.316;16.174;2023-05-10T05:49:03;13.70;99.90
38860;DHT22;24609;48.316;16.174;2023-05-10T05:51:29;13.70;99.90
38860;DHT22;24609;48.316;16.174;2023-05-10T05:53:55;14.00;99.90
38860;DHT22;24609;48.316;16.174;2023-05-10T05:56:20;14.30;99.90
38860;DHT22;24609;48.316;16.174;2023-05-10T05:58:50;14.50;99.90
38860;DHT22;24609;48.316;16.174;2023-05-10T06:01:16;14.60;99.90
38860;DHT22;24609;48.316;16.174;2023-05-10T06:03:42;14.70;99.90
38860;DHT22;24609;48.316;16.174;2023-05-10T06:06:07;14.70;99.90
38860;DHT22;24609;48.316;16.174;2023-05-10T06:08:33;14.90;99.90
38860;DHT22;24609;48.316;16.174;2023-05-10T06:11:00;15.30;99.90
38860;DHT22;24609;48.316;16.174;2023-05-10T06:13:25;15.30;99.90
38860;DHT22;24609;48.316;16.174;2023-05-10T06:16:00;15.40;99.90
38860;DHT22;24609;48.316;16.174;2023-05-10T06:18:26;15.30;99.90
38860;DHT22;24609;48.316;16.174;2023-05-10T06:20:52;15.40;99.90
38860;DHT22;24609;48.316;16.174;2023-05-10T06:23:18;15.70;99.90
38860;DHT22;24609;48.316;16.174;2023-05-10T06:25:43;16.10;99.90
38860;DHT22;24609;48.316;16.174;2023-05-10T06:28:09;16.00;99.90
38860;DHT22;24609;48.316;16.174;2023-05-10T06:30:36;16.20;99.90
38860;DHT22;24609;48.316;16.174;2023-05-10T06:33:02;16.20;99.90
38860;DHT22;24609;48.316;16.174;2023-05-10T06:35:28;16.30;99.90
38860;DHT22;24609;48.316;16.174;2023-05-10T06:37:54;16.60;99.90
38860;DHT22;24609;48.316;16.174;2023-05-10T06:40:20;16.90;99.90
38860;DHT22;24609;48.316;16.174;2023-05-10T06:42:47;17.00;99.90
38860;DHT22;24609;48.316;16.174;2023-05-10T06:45:13;16.90;99.90
38860;DHT22;24609;48.316;16.174;2023-05-10T06:47:40;17.60;99.90
38860;DHT22;24609;48.316;16.174;2023-05-10T06:50:07;18.00;99.00
38860;DHT22;24609;48.316;16.174;2023-05-10T06:52:33;18.20;98.10
38860;DHT22;24609;48.316;16.174;2023-05-10T06:54:58;17.30;97.30
38860;DHT22;24609;48.316;16.174;2023-05-10T06:57:24;17.20;97.10
38860;DHT22;24609;48.316;16.174;2023-05-10T06:59:50;17.20;97.50
38860;DHT22;24609;48.316;16.174;2023-05-10T07:02:16;17.30;97.10
38860;DHT22;24609;48.316;16.174;2023-05-10T07:04:42;17.20;97.00
38860;DHT22;24609;48.316;16.174;2023-05-10T07:07:08;17.20;97.40
38860;DHT22;24609;48.316;16.174;2023-05-10T07:09:34;17.00;96.70
38860;DHT22;24609;48.316;16.174;2023-05-10T07:11:59;16.80;97.10
38860;DHT22;24609;48.316;16.174;2023-05-10T07:14:25;17.30;96.90
38860;DHT22;24609;48.316;16.174;2023-05-10T07:16:51;17.20;96.30
38860;DHT22;24609;48.316;16.174;2023-05-10T07:19:16;17.00;96.40
38860;DHT22;24609;48.316;16.174;2023-05-10T07:21:42;17.40;96.90
38860;DHT22;24609;48.316;16.174;2023-05-10T07:24:09;17.70;96.70
38860;DHT22;24609;48.316;16.174;2023-05-10T07:26:34;17.60;96.20
38860;DHT22;24609;48.316;16.174;2023-05-10T07:29:00;17.50;95.50
38860;DHT22;24609;48.316;16.174;2023-05-10T07:31:26;17.40;95.30
38860;DHT22;24609;48.316;16.174;2023-05-10T07:33:52;17.40;96.00
38860;DHT22;24609;48.316;16.174;2023-05-10T07:36:18;17.80;95.60
38860;DHT22;24609;48.316;16.174;2023-05-10T07:38:43;18.10;95.60
38860;DHT22;24609;48.316;16.174;2023-05-10T07:41:11;17.80;95.30
38860;DHT22;24609;48.316;16.174;2023-05-10T07:43:36;18.20;95.40
38860;DHT22;24609;48.316;16.174;2023-05-10T07:46:02;18.60;95.70
38860;DHT22;24609;48.316;16.174;2023-05-10T07:48:28;18.30;93.90
38860;DHT22;24609;48.316;16.174;2023-05-10T07:50:53;18.60;94.20
38860;DHT22;24609;48.316;16.174;2023-05-10T07:53:19;18.90;93.40
38860;DHT22;24609;48.316;16.174;2023-05-10T07:55:50;19.00;92.30
38860;DHT22;24609;48.316;16.174;2023-05-10T07:58:16;18.60;93.30
38860;DHT22;24609;48.316;16.174;2023-05-10T08:00:41;18.90;92.40
38860;DHT22;24609;48.316;16.174;2023-05-10T08:03:07;18.40;93.00
38860;DHT22;24609;48.316;16.174;2023-05-10T08:05:33;18.00;93.80
38860;DHT22;24609;48.316;16.174;2023-05-10T08:07:58;19.90;92.10
38860;DHT22;24609;48.316;16.174;2023-05-10T08:10:25;20.20;92.10
38860;DHT22;24609;48.316;16.174;2023-05-10T08:12:51;19.50;92.10
38860;DHT22;24609;48.316;16.174;2023-05-10T08:15:16;18.50;93.20
38860;DHT22;24609;48.316;16.174;2023-05-10T08:17:42;17.70;94.20
38860;DHT22;24609;48.316;16.174;2023-05-10T08:20:08;17.90;94.30
38860;DHT22;24609;48.316;16.174;2023-05-10T08:22:34;18.10;94.50
38860;DHT22;24609;48.316;16.174;2023-05-10T08:25:00;18.20;94.00
38860;DHT22;24609;48.316;16.174;2023-05-10T08:27:25;18.10;94.70
38860;DHT22;24609;48.316;16.174;2023-05-10T08:29:51;18.00;94.30
38860;DHT22;24609;48.316;16.174;2023-05-10T08:32:17;17.50;94.90
38860;DHT22;24609;48.316;16.174;2023-05-10T08:34:43;17.70;94.80
38860;DHT22;24609;48.316;16.174;2023-05-10T08:37:08;17.70;94.90
38860;DHT22;24609;48.316;16.174;2023-05-10T08:39:36;17.60;96.00
38860;DHT22;24609;48.316;16.174;2023-05-10T08:42:03;17.60;95.70
38860;DHT22;24609;48.316;16.174;2023-05-10T08:44:32;17.50;96.30
38860;DHT22;24609;48.316;16.174;2023-05-10T08:46:59;17.50;96.10
38860;DHT22;24609;48.316;16.174;2023-05-10T08:49:27;17.80;96.40
38860;DHT22;24609;48.316;16.174;2023-05-10T08:51:57;17.60;95.60
38860;DHT22;24609;48.316;16.174;2023-05-10T08:54:25;17.60;96.00
38860;DHT22;24609;48.316;16.174;2023-05-10T08:56:51;18.70;95.40
38860;DHT22;24609;48.316;16.174;2023-05-10T08:59:17;18.70;94.90
38860;DHT22;24609;48.316;16.174;2023-05-10T09:01:45;18.00;94.90
38860;DHT22;24609;48.316;16.174;2023-05-10T09:04:13;18.00;94.90
38860;DHT22;24609;48.316;16.174;2023-05-10T09:06:39;18.10;95.20
38860;DHT22;24609;48.316;16.174;2023-05-10T09:09:05;18.10;95.10
38860;DHT22;24609;48.316;16.174;2023-05-10T09:11:31;17.90;95.20
38860;DHT22;24609;48.316;16.174;2023-05-10T09:13:56;18.30;95.80
38860;DHT22;24609;48.316;16.174;2023-05-10T09:16:23;18.20;95.10
38860;DHT22;24609;48.316;16.174;2023-05-10T09:18:49;19.50;93.80
38860;DHT22;24609;48.316;16.174;2023-05-10T09:21:15;19.40;94.00
38860;DHT22;24609;48.316;16.174;2023-05-10T09:23:45;19.40;93.60
38860;DHT22;24609;48.316;16.174;2023-05-10T09:26:12;19.30;93.40
38860;DHT22;24609;48.316;16.174;2023-05-10T09:28:55;19.00;94.70
38860;DHT22;24609;48.316;16.174;2023-05-10T09:31:22;18.40;94.50
38860;DHT22;24609;48.316;16.174;2023-05-10T09:33:49;18.30;95.10
38860;DHT22;24609;48.316;16.174;2023-05-10T09:36:15;18.90;94.70
38860;DHT22;24609;48.316;16.174;2023-05-10T09:38:51;18.70;94.20
38860;DHT22;24609;48.316;16.174;2023-05-10T09:41:22;19.50;93.70
38860;DHT22;24609;48.316;16.174;2023-05-10T09:43:48;19.30;92.50
38860;DHT22;24609;48.316;16.174;2023-05-10T09:46:17;19.40;92.90
38860;DHT22;24609;48.316;16.174;2023-05-10T09:48:45;20.30;92.30
38860;DHT22;24609;48.316;16.174;2023-05-10T09:51:24;19.20;92.30
38860;DHT22;24609;48.316;16.174;2023-05-10T09:54:15;19.10;93.60
38860;DHT22;24609;48.316;16.174;2023-05-10T09:56:41;18.90;93.50
38860;DHT22;24609;48.316;16.174;2023-05-10T09:59:10;18.90;93.60
38860;DHT22;24609;48.316;16.174;2023-05-10T10:01:37;19.70;92.70
38860;DHT22;24609;48.316;16.174;2023-05-10T10:04:04;19.90;92.80
38860;DHT22;24609;48.316;16.174;2023-05-10T10:06:38;21.30;90.40
38860;DHT22;24609;48.316;16.174;2023-05-10T10:09:05;21.60;88.60
38860;DHT22;24609;48.316;16.174;2023-05-10T10:11:34;21.10;88.20
38860;DHT22;24609;48.316;16.174;2023-05-10T10:13:59;20.30;90.70
38860;DHT22;24609;48.316;16.174;2023-05-10T10:16:27;20.10;90.40
38860;DHT22;24609;48.316;16.174;2023-05-10T10:18:54;20.20;90.20
38860;DHT22;24609;48.316;16.174;2023-05-10T10:21:20;19.90;89.70
38860;DHT22;24609;48.316;16.174;2023-05-10T10:23:46;19.90;89.90
38860;DHT22;24609;48.316;16.174;2023-05-10T10:26:12;22.20;82.70
38860;DHT22;24609;48.316;16.174;2023-05-10T10:29:04;21.70;81.60
38860;DHT22;24609;48.316;16.174;2023-05-10T10:31:51;20.50;86.00
38860;DHT22;24609;48.316;16.174;2023-05-10T10:34:30;20.40;86.20
38860;DHT22;24609;48.316;16.174;2023-05-10T10:36:57;20.00;87.00
38860;DHT22;24609;48.316;16.174;2023-05-10T10:39:24;19.60;86.30
38860;DHT22;24609;48.316;16.174;2023-05-10T10:41:54;20.00;87.10
38860;DHT22;24609;48.316;16.174;2023-05-10T11:00:27;20.30;84.20
38860;DHT22;24609;48.316;16.174;2023-05-10T11:03:08;20.40;84.20
38860;DHT22;24609;48.316;16.174;2023-05-10T11:05:45;20.70;81.70
38860;DHT22;24609;48.316;16.174;2023-05-10T11:08:19;19.70;84.00
38860;DHT22;24609;48.316;16.174;2023-05-10T11:10:52;20.60;83.20
38860;DHT22;24609;48.316;16.174;2023-05-10T11:15:55;20.20;80.70
38860;DHT22;24609;48.316;16.174;2023-05-10T11:18:29;20.70;81.30
38860;DHT22;24609;48.316;16.174;2023-05-10T11:21:02;21.00;80.40
38860;DHT22;24609;48.316;16.174;2023-05-10T11:23:51;21.40;80.00
38860;DHT22;24609;48.316;16.174;2023-05-10T11:26:17;23.20;75.30
38860;DHT22;24609;48.316;16.174;2023-05-10T11:28:47;23.10;70.70
38860;DHT22;24609;48.316;16.174;2023-05-10T11:31:17;21.40;73.70
38860;DHT22;24609;48.316;16.174;2023-05-10T11:33:44;22.20;74.40
38860;DHT22;24609;48.316;16.174;2023-05-10T11:36:14;22.20;73.10
38860;DHT22;24609;48.316;16.174;2023-05-10T11:38:40;21.10;74.60
38860;DHT22;24609;48.316;16.174;2023-05-10T11:41:11;20.40;77.70
38860;DHT22;24609;48.316;16.174;2023-05-10T11:43:39;20.40;75.30
38860;DHT22;24609;48.316;16.174;2023-05-10T11:46:10;20.30;76.20
38860;DHT22;24609;48.316;16.174;2023-05-10T11:48:40;21.10;78.00
38860;DHT22;24609;48.316;16.174;2023-05-10T11:51:06;21.80;76.20
38860;DHT22;24609;48.316;16.174;2023-05-10T11:53:32;23.90;70.20
38860;DHT22;24609;48.316;16.174;2023-05-10T11:56:08;24.70;64.80
38860;DHT22;24609;48.316;16.174;2023-05-10T11:58:35;23.70;67.60
38860;DHT22;24609;48.316;16.174;2023-05-10T12:01:02;22.90;70.70
38860;DHT22;24609;48.316;16.174;2023-05-10T12:03:28;21.50;71.60
38860;DHT22;24609;48.316;16.174;2023-05-10T12:05:55;21.00;72.90
38860;DHT22;24609;48.316;16.174;2023-05-10T12:08:25;24.20;67.30
38860;DHT22;24609;48.316;16.174;2023-05-10T12:10:52;23.80;65.20
38860;DHT22;24609;48.316;16.174;2023-05-10T12:13:19;21.80;69.40
38860;DHT22;24609;48.316;16.174;2023-05-10T12:15:46;21.70;70.80
38860;DHT22;24609;48.316;16.174;2023-05-10T12:18:12;21.00;72.60
38860;DHT22;24609;48.316;16.174;2023-05-10T12:20:39;21.60;73.30
38860;DHT22;24609;48.316;16.174;2023-05-10T12:23:07;21.70;70.90
38860;DHT22;24609;48.316;16.174;2023-05-10T12:25:38;21.20;70.40
38860;DHT22;24609;48.316;16.174;2023-05-10T12:28:06;21.00;71.80
38860;DHT22;24609;48.316;16.174;2023-05-10T12:30:34;21.00;71.80
38860;DHT22;24609;48.316;16.174;2023-05-10T12:33:08;20.90;70.90
38860;DHT22;24609;48.316;16.174;2023-05-10T12:35:46;21.00;72.30
38860;DHT22;24609;48.316;16.174;2023-05-10T12:41:02;20.50;72.60
38860;DHT22;24609;48.316;16.174;2023-05-10T12:43:28;20.80;73.10
38860;DHT22;24609;48.316;16.174;2023-05-10T12:45:54;20.90;72.20
38860;DHT22;24609;48.316;16.174;2023-05-10T12:48:20;21.30;71.40
38860;DHT22;24609;48.316;16.174;2023-05-10T12:50:46;22.10;70.70
38860;DHT22;24609;48.316;16.174;2023-05-10T12:53:14;22.20;69.60
38860;DHT22;24609;48.316;16.174;2023-05-10T12:55:41;21.80;70.90
38860;DHT22;24609;48.316;16.174;2023-05-10T12:58:07;21.40;71.80
38860;DHT22;24609;48.316;16.174;2023-05-10T13:00:32;21.80;71.60
38860;DHT22;24609;48.316;16.174;2023-05-10T13:02:58;23.20;69.50
38860;DHT22;24609;48.316;16.174;2023-05-10T13:05:24;23.00;68.50
38860;DHT22;24609;48.316;16.174;2023-05-10T13:07:49;22.10;69.20
38860;DHT22;24609;48.316;16.174;2023-05-10T13:10:16;22.20;70.90
38860;DHT22;24609;48.316;16.174;2023-05-10T13:12:41;21.90;68.80
38860;DHT22;24609;48.316;16.174;2023-05-10T13:15:07;23.90;66.80
38860;DHT22;24609;48.316;16.174;2023-05-10T13:17:33;24.80;63.00
38860;DHT22;24609;48.316;16.174;2023-05-10T13:19:59;22.20;65.10
38860;DHT22;24609;48.316;16.174;2023-05-10T13:22:25;22.70;66.30
38860;DHT22;24609;48.316;16.174;2023-05-10T13:24:50;22.30;64.60
38860;DHT22;24609;48.316;16.174;2023-05-10T13:27:16;22.90;65.30
38860;DHT22;24609;48.316;16.174;2023-05-10T13:29:42;22.30;66.40
38860;DHT22;24609;48.316;16.174;2023-05-10T13:32:07;22.70;67.00
38860;DHT22;24609;48.316;16.174;2023-05-10T13:34:33;22.60;67.20
38860;DHT22;24609;48.316;16.174;2023-05-10T13:37:01;23.20;67.10
38860;DHT22;24609;48.316;16.174;2023-05-10T13:39:26;23.30;66.50
38860;DHT22;24609;48.316;16.174;2023-05-10T13:41:52;22.70;65.20
38860;DHT22;24609;48.316;16.174;2023-05-10T13:44:19;21.60;66.80
38860;DHT22;24609;48.316;16.174;2023-05-10T13:46:45;22.40;65.80
38860;DHT22;24609;48.316;16.174;2023-05-10T13:49:11;23.00;65.70
38860;DHT22;24609;48.316;16.174;2023-05-10T13:51:37;22.80;64.80
38860;DHT22;24609;48.316;16.174;2023-05-10T13:54:03;23.20;66.60
38860;DHT22;24609;48.316;16.174;2023-05-10T13:56:29;22.10;66.70
38860;DHT22;24609;48.316;16.174;2023-05-10T13:58:56;22.10;67.00
38860;DHT22;24609;48.316;16.174;2023-05-10T14:01:22;21.70;67.60
38860;DHT22;24609;48.316;16.174;2023-05-10T14:03:48;21.90;66.80
38860;DHT22;24609;48.316;16.174;2023-05-10T14:06:14;21.30;65.80
38860;DHT22;24609;48.316;16.174;2023-05-10T14:08:39;22.00;66.80
38860;DHT22;24609;48.316;16.174;2023-05-10T14:11:05;21.30;66.30
38860;DHT22;24609;48.316;16.174;2023-05-10T14:13:31;21.40;68.50
38860;DHT22;24609;48.316;16.174;2023-05-10T14:15:57;23.30;63.70
38860;DHT22;24609;48.316;16.174;2023-05-10T14:18:24;24.20;61.30
38860;DHT22;24609;48.316;16.174;2023-05-10T14:20:49;24.10;61.30
38860;DHT22;24609;48.316;16.174;2023-05-10T14:23:15;23.70;60.60
38860;DHT22;24609;48.316;16.174;2023-05-10T14:25:41;22.70;63.30
38860;DHT22;24609;48.316;16.174;2023-05-10T14:28:07;22.40;65.00
38860;DHT22;24609;48.316;16.174;2023-05-10T14:30:32;22.50;66.30
38860;DHT22;24609;48.316;16.174;2023-05-10T14:33:01;21.80;66.40
38860;DHT22;24609;48.316;16.174;2023-05-10T14:35:28;21.60;66.80
38860;DHT22;24609;48.316;16.174;2023-05-10T14:37:54;20.80;66.00
38860;DHT22;24609;48.316;16.174;2023-05-10T14:40:19;20.80;68.50
38860;DHT22;24609;48.316;16.174;2023-05-10T14:42:46;21.30;66.60
38860;DHT22;24609;48.316;16.174;2023-05-10T14:45:12;22.10;67.10
38860;DHT22;24609;48.316;16.174;2023-05-10T14:47:38;22.20;64.90
38860;DHT22;24609;48.316;16.174;2023-05-10T14:50:04;22.80;62.00
38860;DHT22;24609;48.316;16.174;2023-05-10T14:52:30;21.90;63.30
38860;DHT22;24609;48.316;16.174;2023-05-10T14:54:55;22.60;61.90
38860;DHT22;24609;48.316;16.174;2023-05-10T14:57:22;22.90;59.20
38860;DHT22;24609;48.316;16.174;2023-05-10T14:59:48;21.00;63.00
38860;DHT22;24609;48.316;16.174;2023-05-10T15:02:13;21.40;64.80
38860;DHT22;24609;48.316;16.174;2023-05-10T15:04:39;23.40;59.50
38860;DHT22;24609;48.316;16.174;2023-05-10T15:07:04;23.10;59.40
38860;DHT22;24609;48.316;16.174;2023-05-10T15:09:31;22.10;60.80
38860;DHT22;24609;48.316;16.174;2023-05-10T15:11:56;22.30;58.80
38860;DHT22;24609;48.316;16.174;2023-05-10T15:14:22;23.50;57.50
38860;DHT22;24609;48.316;16.174;2023-05-10T15:16:48;21.60;60.30
38860;DHT22;24609;48.316;16.174;2023-05-10T15:19:14;22.70;59.50
38860;DHT22;24609;48.316;16.174;2023-05-10T15:21:40;23.40;57.00
38860;DHT22;24609;48.316;16.174;2023-05-10T15:24:08;23.40;57.70
38860;DHT22;24609;48.316;16.174;2023-05-10T15:26:33;24.20;55.90
38860;DHT22;24609;48.316;16.174;2023-05-10T15:28:59;24.00;55.10
38860;DHT22;24609;48.316;16.174;2023-05-10T15:31:25;21.40;59.70
38860;DHT22;24609;48.316;16.174;2023-05-10T15:33:57;21.40;60.30
38860;DHT22;24609;48.316;16.174;2023-05-10T15:36:24;22.60;58.80
38860;DHT22;24609;48.316;16.174;2023-05-10T15:38:49;21.00;61.50
38860;DHT22;24609;48.316;16.174;2023-05-10T15:41:15;20.40;63.10
38860;DHT22;24609;48.316;16.174;2023-05-10T15:43:41;20.30;63.70
38860;DHT22;24609;48.316;16.174;2023-05-10T15:46:07;20.00;64.50
38860;DHT22;24609;48.316;16.174;2023-05-10T15:48:32;19.70;65.60
38860;DHT22;24609;48.316;16.174;2023-05-10T15:50:58;19.50;66.20
38860;DHT22;24609;48.316;16.174;2023-05-10T15:53:24;19.60;67.00